Skip Navigation Links
NOAA logo - Click to go to the NOAA homepage
NOAA's National Weather Service
Alaska Aviation Weather Unit
  NWS logo - Click to go to the NWS homepage
Left Navbar Graphic     00 AKDT = 08 GMT

   
NOAA is celebrating 200 years of science, service, and stewardship. Visit the NOAA 200th celebration Web site to learn more.
USA.gov is the U.S. Government's official Web portal to all Federal, state and local government Web resources and services.
Facebook
NWS on Facebook

Important Change Regarding the AAWU Web Presence

 

Over the last several months, the AAWU has been working to navigate its webpages to a nationally supported server. Security, as well as other needs, have necessitated the change.  In the process, we have made an effort to enhance the functionality of our website, as well as some of our products. As of June 20, 2017, aawu.arh.noaa.gov will be discontinued. The new AAWU web address is weather.gov/aawu. It is now live and will run in-parallel with the old site until it is discontinued. Please send any feedback or questions regarding the new webpages to nws.ar.aawu.webauthors@noaa.gov.  Thank you for your patience during this time of transition.
AAWU Home :: Display TAF Add Bookmark
TAF PATC 270400Z 2704/2810 18012G18KT 0400 FG OVC002 QNH3015INS
      TX10/2718Z TN06/2710Z=
PATC 240219Z AUTO 18009KT 10SM BKN004 01/01 A2975=

PATC 240239Z AUTO 20008KT 1/2SM FG VV003 01/01 A2975=

METAR PATC 240255Z AUTO 21007KT M1/4SM FG VV002 01/01 A2975=

PATC 240339Z AUTO 21005KT 3/4SM BR BKN003 00/00 A2975=

METAR PATC 240355Z AUTO 20005KT 5SM BR BKN002 00/00 A2975=

METAR PATC 240455Z AUTO 23002KT 1 3/4SM BR OVC002 01/01 A2974=

PATC 240459Z AUTO 23002KT 1 1/4SM BR OVC002 01/01 A2974=

PATC 240519Z AUTO 20004KT 2SM BR BKN002 01/01 A2973=

PATC 240539Z AUTO 24004KT 1 3/4SM BR BKN002 01/01 A2973=

METAR PATC 240555Z AUTO 24003KT 3/4SM BR VV003 00/00 A2972=

PATC 240559Z AUTO 24003KT 1SM BR BKN002 00/00 A2972=

PATC 240619Z AUTO 18003KT 1/2SM FG VV002 00/00 A2972=

METAR PATC 240655Z AUTO 18002KT 1/4SM FG VV002 00/00 A2972=

PATC 240719Z AUTO 05008KT 1 1/4SM BR BKN003 00/00 A2972=

PATC 240740Z AUTO 03012KT 1/4SM -RA FG VV002 00/00 A2971=


NOAA's National Weather Service
Alaska Aviation Weather Unit
6930 Sand Lake Road
Anchorage, AK 99502-1845
Disclaimer
Credits
Glossary
Privacy Policy
About Us
Career Opportunities
Contact AAWU Internet Services Site last modified: April, 17th 2012